sensor_id;sensor_type;location;lat;lon;timestamp;P1;durP1;ratioP1;P2;durP2;ratioP2
63534;SDS011;55128;50.230;18.944;2023-07-31T00:04:58;6.53;;;4.60;;
63534;SDS011;55128;50.230;18.944;2023-07-31T00:09:58;8.82;;;4.65;;
63534;SDS011;55128;50.230;18.944;2023-07-31T00:14:59;4.85;;;4.35;;
63534;SDS011;55128;50.230;18.944;2023-07-31T00:19:59;6.18;;;4.60;;
63534;SDS011;55128;50.230;18.944;2023-07-31T00:24:59;6.50;;;5.00;;
63534;SDS011;55128;50.230;18.944;2023-07-31T00:30:00;6.93;;;5.23;;
63534;SDS011;55128;50.230;18.944;2023-07-31T00:35:00;4.97;;;4.38;;
63534;SDS011;55128;50.230;18.944;2023-07-31T00:40:01;7.68;;;4.55;;
63534;SDS011;55128;50.230;18.944;2023-07-31T00:45:03;5.22;;;4.60;;
63534;SDS011;55128;50.230;18.944;2023-07-31T00:50:04;6.43;;;5.15;;
63534;SDS011;55128;50.230;18.944;2023-07-31T00:55:05;6.03;;;4.72;;
63534;SDS011;55128;50.230;18.944;2023-07-31T01:00:06;6.03;;;5.45;;
63534;SDS011;55128;50.230;18.944;2023-07-31T01:05:07;7.93;;;5.22;;
63534;SDS011;55128;50.230;18.944;2023-07-31T01:10:11;5.78;;;4.63;;
63534;SDS011;55128;50.230;18.944;2023-07-31T01:15:17;6.95;;;5.10;;
63534;SDS011;55128;50.230;18.944;2023-07-31T01:20:18;6.38;;;5.40;;
63534;SDS011;55128;50.230;18.944;2023-07-31T01:30:48;6.70;;;4.53;;
63534;SDS011;55128;50.230;18.944;2023-07-31T01:35:49;5.13;;;4.63;;
63534;SDS011;55128;50.230;18.944;2023-07-31T01:40:52;6.80;;;4.30;;
63534;SDS011;55128;50.230;18.944;2023-07-31T01:45:53;4.78;;;4.18;;
63534;SDS011;55128;50.230;18.944;2023-07-31T01:50:54;4.90;;;4.13;;
63534;SDS011;55128;50.230;18.944;2023-07-31T01:55:54;5.03;;;4.33;;
63534;SDS011;55128;50.230;18.944;2023-07-31T02:00:54;6.33;;;4.17;;
63534;SDS011;55128;50.230;18.944;2023-07-31T02:05:55;4.55;;;3.92;;
63534;SDS011;55128;50.230;18.944;2023-07-31T02:10:56;4.35;;;3.90;;
63534;SDS011;55128;50.230;18.944;2023-07-31T02:15:57;5.97;;;4.30;;
63534;SDS011;55128;50.230;18.944;2023-07-31T02:20:57;5.70;;;4.30;;
63534;SDS011;55128;50.230;18.944;2023-07-31T02:31:54;5.82;;;3.92;;
63534;SDS011;55128;50.230;18.944;2023-07-31T02:36:54;4.07;;;3.67;;
63534;SDS011;55128;50.230;18.944;2023-07-31T02:41:55;6.20;;;3.53;;
63534;SDS011;55128;50.230;18.944;2023-07-31T02:46:55;4.13;;;3.03;;
63534;SDS011;55128;50.230;18.944;2023-07-31T02:51:55;3.70;;;3.30;;
63534;SDS011;55128;50.230;18.944;2023-07-31T02:56:56;4.77;;;3.63;;
63534;SDS011;55128;50.230;18.944;2023-07-31T03:01:56;5.63;;;3.65;;
63534;SDS011;55128;50.230;18.944;2023-07-31T03:06:56;5.18;;;3.28;;
63534;SDS011;55128;50.230;18.944;2023-07-31T03:11:57;4.72;;;2.97;;
63534;SDS011;55128;50.230;18.944;2023-07-31T03:16:57;4.07;;;2.93;;
63534;SDS011;55128;50.230;18.944;2023-07-31T03:21:58;4.57;;;3.13;;
63534;SDS011;55128;50.230;18.944;2023-07-31T03:26:59;4.50;;;3.22;;
63534;SDS011;55128;50.230;18.944;2023-07-31T03:31:59;4.40;;;3.10;;
63534;SDS011;55128;50.230;18.944;2023-07-31T03:36:59;6.82;;;3.15;;
63534;SDS011;55128;50.230;18.944;2023-07-31T03:42:00;4.20;;;3.40;;
63534;SDS011;55128;50.230;18.944;2023-07-31T03:47:00;3.88;;;3.00;;
63534;SDS011;55128;50.230;18.944;2023-07-31T03:52:00;5.97;;;2.93;;
63534;SDS011;55128;50.230;18.944;2023-07-31T03:57:01;4.03;;;2.58;;
63534;SDS011;55128;50.230;18.944;2023-07-31T04:02:01;3.17;;;2.83;;
63534;SDS011;55128;50.230;18.944;2023-07-31T04:07:02;5.43;;;3.05;;
63534;SDS011;55128;50.230;18.944;2023-07-31T04:12:02;4.28;;;2.83;;
63534;SDS011;55128;50.230;18.944;2023-07-31T04:17:03;4.57;;;2.83;;
63534;SDS011;55128;50.230;18.944;2023-07-31T04:22:03;3.85;;;2.83;;
63534;SDS011;55128;50.230;18.944;2023-07-31T04:27:03;3.37;;;2.77;;
63534;SDS011;55128;50.230;18.944;2023-07-31T04:32:04;3.88;;;2.53;;
63534;SDS011;55128;50.230;18.944;2023-07-31T04:37:04;5.20;;;2.65;;
63534;SDS011;55128;50.230;18.944;2023-07-31T04:42:05;4.47;;;2.60;;
63534;SDS011;55128;50.230;18.944;2023-07-31T04:47:05;5.43;;;3.22;;
63534;SDS011;55128;50.230;18.944;2023-07-31T04:52:05;5.57;;;2.92;;
63534;SDS011;55128;50.230;18.944;2023-07-31T04:57:06;6.63;;;2.75;;
63534;SDS011;55128;50.230;18.944;2023-07-31T05:02:08;5.13;;;3.15;;
63534;SDS011;55128;50.230;18.944;2023-07-31T05:07:08;4.60;;;2.65;;
63534;SDS011;55128;50.230;18.944;2023-07-31T05:12:09;5.83;;;3.13;;
63534;SDS011;55128;50.230;18.944;2023-07-31T05:17:10;7.23;;;3.40;;
63534;SDS011;55128;50.230;18.944;2023-07-31T05:22:11;4.68;;;2.85;;
63534;SDS011;55128;50.230;18.944;2023-07-31T05:27:11;6.67;;;2.87;;
63534;SDS011;55128;50.230;18.944;2023-07-31T05:32:12;4.80;;;2.53;;
63534;SDS011;55128;50.230;18.944;2023-07-31T05:37:13;4.60;;;2.50;;
63534;SDS011;55128;50.230;18.944;2023-07-31T05:42:13;6.13;;;2.65;;
63534;SDS011;55128;50.230;18.944;2023-07-31T05:47:14;4.43;;;2.37;;
63534;SDS011;55128;50.230;18.944;2023-07-31T05:52:14;4.68;;;2.20;;
63534;SDS011;55128;50.230;18.944;2023-07-31T05:57:15;3.53;;;1.92;;
63534;SDS011;55128;50.230;18.944;2023-07-31T06:02:15;4.57;;;1.77;;
63534;SDS011;55128;50.230;18.944;2023-07-31T06:07:15;3.77;;;1.80;;
63534;SDS011;55128;50.230;18.944;2023-07-31T06:12:16;4.63;;;1.73;;
63534;SDS011;55128;50.230;18.944;2023-07-31T06:17:18;5.63;;;1.90;;
63534;SDS011;55128;50.230;18.944;2023-07-31T06:22:19;4.97;;;1.60;;
63534;SDS011;55128;50.230;18.944;2023-07-31T06:27:19;3.40;;;1.70;;
63534;SDS011;55128;50.230;18.944;2023-07-31T06:32:19;3.67;;;1.50;;
63534;SDS011;55128;50.230;18.944;2023-07-31T06:37:20;4.47;;;1.60;;
63534;SDS011;55128;50.230;18.944;2023-07-31T06:42:20;3.93;;;1.87;;
63534;SDS011;55128;50.230;18.944;2023-07-31T06:47:21;2.97;;;1.45;;
63534;SDS011;55128;50.230;18.944;2023-07-31T06:52:21;6.72;;;1.70;;
63534;SDS011;55128;50.230;18.944;2023-07-31T06:57:21;2.90;;;1.33;;
63534;SDS011;55128;50.230;18.944;2023-07-31T07:02:22;4.18;;;1.40;;
63534;SDS011;55128;50.230;18.944;2023-07-31T07:07:22;2.43;;;1.23;;
63534;SDS011;55128;50.230;18.944;2023-07-31T07:12:22;2.90;;;1.25;;
63534;SDS011;55128;50.230;18.944;2023-07-31T07:17:23;3.38;;;1.40;;
63534;SDS011;55128;50.230;18.944;2023-07-31T07:22:24;8.85;;;2.00;;
63534;SDS011;55128;50.230;18.944;2023-07-31T07:37:26;3.50;;;1.40;;
63534;SDS011;55128;50.230;18.944;2023-07-31T07:42:26;3.50;;;1.83;;
63534;SDS011;55128;50.230;18.944;2023-07-31T07:47:27;3.53;;;1.40;;
63534;SDS011;55128;50.230;18.944;2023-07-31T07:52:27;5.37;;;1.80;;
63534;SDS011;55128;50.230;18.944;2023-07-31T07:57:27;5.47;;;1.70;;
63534;SDS011;55128;50.230;18.944;2023-07-31T08:02:28;3.30;;;1.53;;
63534;SDS011;55128;50.230;18.944;2023-07-31T08:07:28;5.13;;;1.40;;
63534;SDS011;55128;50.230;18.944;2023-07-31T08:12:29;4.00;;;1.15;;
63534;SDS011;55128;50.230;18.944;2023-07-31T08:17:30;3.67;;;1.30;;
63534;SDS011;55128;50.230;18.944;2023-07-31T08:22:30;3.67;;;1.42;;
63534;SDS011;55128;50.230;18.944;2023-07-31T08:27:31;3.83;;;1.30;;
63534;SDS011;55128;50.230;18.944;2023-07-31T08:32:31;3.00;;;1.30;;
63534;SDS011;55128;50.230;18.944;2023-07-31T08:37:32;4.45;;;1.52;;
63534;SDS011;55128;50.230;18.944;2023-07-31T08:42:32;4.78;;;1.58;;
63534;SDS011;55128;50.230;18.944;2023-07-31T08:47:32;2.80;;;1.30;;
63534;SDS011;55128;50.230;18.944;2023-07-31T08:52:33;3.10;;;1.43;;
63534;SDS011;55128;50.230;18.944;2023-07-31T09:02:41;4.47;;;1.73;;
63534;SDS011;55128;50.230;18.944;2023-07-31T09:07:56;4.18;;;1.33;;
63534;SDS011;55128;50.230;18.944;2023-07-31T09:12:57;5.38;;;1.38;;
63534;SDS011;55128;50.230;18.944;2023-07-31T09:23:09;3.25;;;1.42;;
63534;SDS011;55128;50.230;18.944;2023-07-31T09:28:14;2.95;;;1.40;;
63534;SDS011;55128;50.230;18.944;2023-07-31T09:38:15;3.37;;;1.20;;
63534;SDS011;55128;50.230;18.944;2023-07-31T09:43:19;3.95;;;1.30;;
63534;SDS011;55128;50.230;18.944;2023-07-31T09:48:20;13.07;;;2.30;;
63534;SDS011;55128;50.230;18.944;2023-07-31T09:53:29;3.85;;;1.02;;
63534;SDS011;55128;50.230;18.944;2023-07-31T09:58:30;5.25;;;1.25;;
63534;SDS011;55128;50.230;18.944;2023-07-31T10:03:35;3.80;;;1.30;;
63534;SDS011;55128;50.230;18.944;2023-07-31T10:08:37;4.95;;;1.60;;
63534;SDS011;55128;50.230;18.944;2023-07-31T10:13:40;4.93;;;2.10;;
63534;SDS011;55128;50.230;18.944;2023-07-31T10:18:42;2.40;;;1.50;;
63534;SDS011;55128;50.230;18.944;2023-07-31T10:23:43;4.25;;;1.48;;
63534;SDS011;55128;50.230;18.944;2023-07-31T10:28:45;3.08;;;1.30;;
63534;SDS011;55128;50.230;18.944;2023-07-31T10:33:47;4.70;;;1.27;;
63534;SDS011;55128;50.230;18.944;2023-07-31T10:38:48;3.78;;;1.30;;
63534;SDS011;55128;50.230;18.944;2023-07-31T10:43:49;3.53;;;1.35;;
63534;SDS011;55128;50.230;18.944;2023-07-31T10:49:00;4.20;;;1.73;;
63534;SDS011;55128;50.230;18.944;2023-07-31T10:54:14;4.47;;;1.63;;
63534;SDS011;55128;50.230;18.944;2023-07-31T10:59:16;3.60;;;1.30;;
63534;SDS011;55128;50.230;18.944;2023-07-31T11:04:24;4.38;;;1.60;;
63534;SDS011;55128;50.230;18.944;2023-07-31T11:09:29;3.38;;;1.83;;
63534;SDS011;55128;50.230;18.944;2023-07-31T11:14:30;3.88;;;1.75;;
63534;SDS011;55128;50.230;18.944;2023-07-31T11:19:31;3.77;;;1.37;;
63534;SDS011;55128;50.230;18.944;2023-07-31T11:24:31;3.47;;;1.40;;
63534;SDS011;55128;50.230;18.944;2023-07-31T11:29:31;3.03;;;1.30;;
63534;SDS011;55128;50.230;18.944;2023-07-31T11:34:32;2.97;;;1.40;;
63534;SDS011;55128;50.230;18.944;2023-07-31T11:39:32;3.70;;;1.30;;
63534;SDS011;55128;50.230;18.944;2023-07-31T11:44:38;3.30;;;1.20;;
63534;SDS011;55128;50.230;18.944;2023-07-31T11:49:41;3.10;;;1.30;;
63534;SDS011;55128;50.230;18.944;2023-07-31T11:54:41;2.60;;;1.60;;
63534;SDS011;55128;50.230;18.944;2023-07-31T11:59:42;3.15;;;1.58;;
63534;SDS011;55128;50.230;18.944;2023-07-31T12:04:43;4.80;;;1.60;;
63534;SDS011;55128;50.230;18.944;2023-07-31T12:09:53;3.33;;;1.45;;
63534;SDS011;55128;50.230;18.944;2023-07-31T12:14:54;4.07;;;1.15;;
63534;SDS011;55128;50.230;18.944;2023-07-31T12:19:55;5.55;;;1.30;;
63534;SDS011;55128;50.230;18.944;2023-07-31T12:24:56;3.10;;;1.50;;
63534;SDS011;55128;50.230;18.944;2023-07-31T12:29:57;3.05;;;1.35;;
63534;SDS011;55128;50.230;18.944;2023-07-31T12:35:00;5.40;;;2.13;;
63534;SDS011;55128;50.230;18.944;2023-07-31T12:40:01;3.88;;;1.50;;
63534;SDS011;55128;50.230;18.944;2023-07-31T12:50:05;4.30;;;1.60;;
63534;SDS011;55128;50.230;18.944;2023-07-31T12:55:06;2.90;;;1.40;;
63534;SDS011;55128;50.230;18.944;2023-07-31T13:00:07;3.70;;;1.50;;
63534;SDS011;55128;50.230;18.944;2023-07-31T13:05:08;3.30;;;1.23;;
63534;SDS011;55128;50.230;18.944;2023-07-31T13:10:09;3.28;;;1.25;;
63534;SDS011;55128;50.230;18.944;2023-07-31T13:15:09;3.35;;;1.60;;
63534;SDS011;55128;50.230;18.944;2023-07-31T13:20:10;2.63;;;1.13;;
63534;SDS011;55128;50.230;18.944;2023-07-31T13:25:10;4.60;;;1.50;;
63534;SDS011;55128;50.230;18.944;2023-07-31T13:30:11;3.37;;;1.70;;
63534;SDS011;55128;50.230;18.944;2023-07-31T13:35:11;4.50;;;1.50;;
63534;SDS011;55128;50.230;18.944;2023-07-31T13:40:12;4.25;;;1.30;;
63534;SDS011;55128;50.230;18.944;2023-07-31T13:45:12;5.83;;;1.30;;
63534;SDS011;55128;50.230;18.944;2023-07-31T13:50:12;3.08;;;1.40;;
63534;SDS011;55128;50.230;18.944;2023-07-31T13:55:13;4.43;;;1.90;;
63534;SDS011;55128;50.230;18.944;2023-07-31T14:00:13;3.85;;;1.50;;
63534;SDS011;55128;50.230;18.944;2023-07-31T14:05:14;4.57;;;1.45;;
63534;SDS011;55128;50.230;18.944;2023-07-31T14:10:14;4.17;;;1.27;;
63534;SDS011;55128;50.230;18.944;2023-07-31T14:15:14;6.07;;;1.40;;
63534;SDS011;55128;50.230;18.944;2023-07-31T14:20:15;5.50;;;1.30;;
63534;SDS011;55128;50.230;18.944;2023-07-31T14:25:15;2.25;;;1.10;;
63534;SDS011;55128;50.230;18.944;2023-07-31T14:30:15;4.23;;;1.73;;
63534;SDS011;55128;50.230;18.944;2023-07-31T14:35:17;7.82;;;1.30;;
63534;SDS011;55128;50.230;18.944;2023-07-31T14:40:17;2.80;;;1.52;;
63534;SDS011;55128;50.230;18.944;2023-07-31T14:45:17;5.47;;;1.80;;
63534;SDS011;55128;50.230;18.944;2023-07-31T14:50:19;4.18;;;1.95;;
63534;SDS011;55128;50.230;18.944;2023-07-31T14:55:20;2.40;;;1.42;;
63534;SDS011;55128;50.230;18.944;2023-07-31T15:00:21;4.18;;;2.13;;
63534;SDS011;55128;50.230;18.944;2023-07-31T15:05:22;3.80;;;1.55;;
63534;SDS011;55128;50.230;18.944;2023-07-31T15:10:22;5.32;;;1.40;;
63534;SDS011;55128;50.230;18.944;2023-07-31T15:15:22;4.33;;;1.37;;
63534;SDS011;55128;50.230;18.944;2023-07-31T15:20:23;5.32;;;1.30;;
63534;SDS011;55128;50.230;18.944;2023-07-31T15:25:24;2.93;;;0.90;;
63534;SDS011;55128;50.230;18.944;2023-07-31T15:30:24;2.23;;;0.90;;
63534;SDS011;55128;50.230;18.944;2023-07-31T15:35:24;4.55;;;1.10;;
63534;SDS011;55128;50.230;18.944;2023-07-31T15:40:25;2.38;;;1.10;;
63534;SDS011;55128;50.230;18.944;2023-07-31T15:45:25;3.43;;;1.13;;
63534;SDS011;55128;50.230;18.944;2023-07-31T15:50:26;2.53;;;0.93;;
63534;SDS011;55128;50.230;18.944;2023-07-31T15:55:26;4.88;;;0.90;;
63534;SDS011;55128;50.230;18.944;2023-07-31T16:00:26;3.20;;;1.40;;
63534;SDS011;55128;50.230;18.944;2023-07-31T16:05:27;2.25;;;1.20;;
63534;SDS011;55128;50.230;18.944;2023-07-31T16:10:27;3.13;;;1.40;;
63534;SDS011;55128;50.230;18.944;2023-07-31T16:15:27;3.03;;;1.75;;
63534;SDS011;55128;50.230;18.944;2023-07-31T16:20:29;3.05;;;1.30;;
63534;SDS011;55128;50.230;18.944;2023-07-31T16:25:29;3.35;;;1.40;;
63534;SDS011;55128;50.230;18.944;2023-07-31T16:30:30;7.15;;;1.65;;
63534;SDS011;55128;50.230;18.944;2023-07-31T16:35:30;4.40;;;1.67;;
63534;SDS011;55128;50.230;18.944;2023-07-31T16:40:30;3.27;;;1.47;;
63534;SDS011;55128;50.230;18.944;2023-07-31T16:45:31;5.93;;;1.63;;
63534;SDS011;55128;50.230;18.944;2023-07-31T16:50:31;4.30;;;1.50;;
63534;SDS011;55128;50.230;18.944;2023-07-31T16:55:32;3.38;;;1.50;;
63534;SDS011;55128;50.230;18.944;2023-07-31T17:00:34;3.40;;;1.38;;
63534;SDS011;55128;50.230;18.944;2023-07-31T17:05:34;3.97;;;1.37;;
63534;SDS011;55128;50.230;18.944;2023-07-31T17:10:36;3.08;;;1.40;;
63534;SDS011;55128;50.230;18.944;2023-07-31T17:15:36;4.40;;;1.60;;
63534;SDS011;55128;50.230;18.944;2023-07-31T17:20:36;2.85;;;1.40;;
63534;SDS011;55128;50.230;18.944;2023-07-31T17:25:37;2.70;;;1.40;;
63534;SDS011;55128;50.230;18.944;2023-07-31T17:30:38;3.05;;;1.48;;
63534;SDS011;55128;50.230;18.944;2023-07-31T17:35:40;3.88;;;1.30;;
63534;SDS011;55128;50.230;18.944;2023-07-31T17:40:40;3.33;;;1.40;;
63534;SDS011;55128;50.230;18.944;2023-07-31T17:45:41;4.80;;;1.40;;
63534;SDS011;55128;50.230;18.944;2023-07-31T17:50:41;3.38;;;1.35;;
63534;SDS011;55128;50.230;18.944;2023-07-31T17:55:42;3.60;;;1.40;;
63534;SDS011;55128;50.230;18.944;2023-07-31T18:00:42;4.90;;;1.65;;
63534;SDS011;55128;50.230;18.944;2023-07-31T18:05:43;4.25;;;1.70;;
63534;SDS011;55128;50.230;18.944;2023-07-31T18:10:43;3.70;;;1.40;;
63534;SDS011;55128;50.230;18.944;2023-07-31T18:15:47;3.70;;;1.73;;
63534;SDS011;55128;50.230;18.944;2023-07-31T18:20:47;3.03;;;1.50;;
63534;SDS011;55128;50.230;18.944;2023-07-31T18:25:48;3.43;;;1.43;;
63534;SDS011;55128;50.230;18.944;2023-07-31T18:30:48;3.60;;;2.17;;
63534;SDS011;55128;50.230;18.944;2023-07-31T18:35:48;5.32;;;1.73;;
63534;SDS011;55128;50.230;18.944;2023-07-31T18:40:49;3.47;;;1.80;;
63534;SDS011;55128;50.230;18.944;2023-07-31T18:45:49;3.15;;;1.50;;
63534;SDS011;55128;50.230;18.944;2023-07-31T18:50:50;3.40;;;1.83;;
63534;SDS011;55128;50.230;18.944;2023-07-31T18:55:51;5.95;;;2.20;;
63534;SDS011;55128;50.230;18.944;2023-07-31T19:00:52;5.30;;;2.33;;
63534;SDS011;55128;50.230;18.944;2023-07-31T19:05:59;3.58;;;1.85;;
63534;SDS011;55128;50.230;18.944;2023-07-31T19:11:02;4.40;;;2.20;;
63534;SDS011;55128;50.230;18.944;2023-07-31T19:16:03;3.63;;;1.83;;
63534;SDS011;55128;50.230;18.944;2023-07-31T19:21:03;5.88;;;2.13;;
63534;SDS011;55128;50.230;18.944;2023-07-31T19:26:04;4.50;;;2.60;;
63534;SDS011;55128;50.230;18.944;2023-07-31T19:31:04;3.20;;;2.33;;
63534;SDS011;55128;50.230;18.944;2023-07-31T19:36:04;4.35;;;2.20;;
63534;SDS011;55128;50.230;18.944;2023-07-31T19:41:05;4.17;;;2.50;;
63534;SDS011;55128;50.230;18.944;2023-07-31T19:46:05;4.87;;;2.40;;
63534;SDS011;55128;50.230;18.944;2023-07-31T19:51:05;6.53;;;2.40;;
63534;SDS011;55128;50.230;18.944;2023-07-31T19:56:06;6.10;;;2.63;;
63534;SDS011;55128;50.230;18.944;2023-07-31T20:01:06;5.50;;;2.80;;
63534;SDS011;55128;50.230;18.944;2023-07-31T20:06:07;3.97;;;2.50;;
63534;SDS011;55128;50.230;18.944;2023-07-31T20:11:07;4.93;;;3.10;;
63534;SDS011;55128;50.230;18.944;2023-07-31T20:16:08;9.38;;;3.35;;
63534;SDS011;55128;50.230;18.944;2023-07-31T20:21:09;5.38;;;3.08;;
63534;SDS011;55128;50.230;18.944;2023-07-31T20:26:10;6.30;;;3.03;;
63534;SDS011;55128;50.230;18.944;2023-07-31T20:31:10;6.40;;;3.20;;
63534;SDS011;55128;50.230;18.944;2023-07-31T20:36:11;6.97;;;3.40;;
63534;SDS011;55128;50.230;18.944;2023-07-31T20:41:11;6.93;;;3.10;;
63534;SDS011;55128;50.230;18.944;2023-07-31T20:46:12;4.05;;;3.03;;
63534;SDS011;55128;50.230;18.944;2023-07-31T20:51:12;6.70;;;3.15;;
63534;SDS011;55128;50.230;18.944;2023-07-31T20:56:12;6.00;;;3.60;;
63534;SDS011;55128;50.230;18.944;2023-07-31T21:01:13;5.90;;;3.70;;
63534;SDS011;55128;50.230;18.944;2023-07-31T21:06:13;6.77;;;3.83;;
63534;SDS011;55128;50.230;18.944;2023-07-31T21:11:16;9.82;;;4.18;;
63534;SDS011;55128;50.230;18.944;2023-07-31T21:16:16;7.28;;;4.10;;
63534;SDS011;55128;50.230;18.944;2023-07-31T21:21:17;8.35;;;4.50;;
63534;SDS011;55128;50.230;18.944;2023-07-31T21:26:17;9.47;;;5.87;;
63534;SDS011;55128;50.230;18.944;2023-07-31T21:31:17;10.57;;;5.00;;
63534;SDS011;55128;50.230;18.944;2023-07-31T21:36:18;8.00;;;4.80;;
63534;SDS011;55128;50.230;18.944;2023-07-31T21:41:18;9.60;;;4.55;;
63534;SDS011;55128;50.230;18.944;2023-07-31T21:46:18;8.50;;;4.87;;
63534;SDS011;55128;50.230;18.944;2023-07-31T21:51:19;9.30;;;5.72;;
63534;SDS011;55128;50.230;18.944;2023-07-31T21:56:19;10.65;;;6.20;;
63534;SDS011;55128;50.230;18.944;2023-07-31T22:01:20;9.43;;;5.85;;
63534;SDS011;55128;50.230;18.944;2023-07-31T22:06:20;9.03;;;5.77;;
63534;SDS011;55128;50.230;18.944;2023-07-31T22:11:20;11.50;;;5.93;;
63534;SDS011;55128;50.230;18.944;2023-07-31T22:16:22;6.97;;;5.32;;
63534;SDS011;55128;50.230;18.944;2023-07-31T22:21:22;11.88;;;6.07;;
63534;SDS011;55128;50.230;18.944;2023-07-31T22:26:23;7.10;;;5.57;;
63534;SDS011;55128;50.230;18.944;2023-07-31T22:31:23;10.25;;;5.68;;
63534;SDS011;55128;50.230;18.944;2023-07-31T22:36:23;8.43;;;5.37;;
63534;SDS011;55128;50.230;18.944;2023-07-31T22:41:24;7.90;;;5.72;;
63534;SDS011;55128;50.230;18.944;2023-07-31T22:46:24;8.43;;;6.10;;
63534;SDS011;55128;50.230;18.944;2023-07-31T22:51:24;10.13;;;5.90;;
63534;SDS011;55128;50.230;18.944;2023-07-31T22:56:25;11.50;;;6.63;;
63534;SDS011;55128;50.230;18.944;2023-07-31T23:01:25;11.30;;;5.80;;
63534;SDS011;55128;50.230;18.944;2023-07-31T23:06:27;10.00;;;6.47;;
63534;SDS011;55128;50.230;18.944;2023-07-31T23:11:27;9.23;;;6.57;;
63534;SDS011;55128;50.230;18.944;2023-07-31T23:16:28;8.77;;;5.80;;
63534;SDS011;55128;50.230;18.944;2023-07-31T23:21:28;12.57;;;5.90;;
63534;SDS011;55128;50.230;18.944;2023-07-31T23:26:28;8.63;;;6.07;;
63534;SDS011;55128;50.230;18.944;2023-07-31T23:31:29;11.98;;;6.40;;
63534;SDS011;55128;50.230;18.944;2023-07-31T23:36:29;11.07;;;6.27;;
63534;SDS011;55128;50.230;18.944;2023-07-31T23:41:29;9.63;;;6.17;;
63534;SDS011;55128;50.230;18.944;2023-07-31T23:46:30;12.20;;;6.07;;
63534;SDS011;55128;50.230;18.944;2023-07-31T23:51:30;12.02;;;5.97;;
63534;SDS011;55128;50.230;18.944;2023-07-31T23:56:31;10.13;;;6.33;;
